Time;durP1;ratioP1;P1;durP2;ratioP2;P2;SDS_P1;SDS_P2;PMS_P1;PMS_P2;Temp;Humidity;BMP_temperature;BMP_pressure;BME280_temperature;BME280_humidity;BME280_pressure;Samples;Min_cycle;Max_cycle;Signal;HPM_P1;HPM_P2
2021/08/18 00:00:44;;;;;;;31.23;12.60;;;13.80;90.90;;;;;;5034394;28;20171;-87
2021/08/18 00:03:10;;;;;;;22.00;10.37;;;13.80;90.90;;;;;;5016621;28;20287;-87
2021/08/18 00:05:38;;;;;;;21.47;10.60;;;13.70;91.10;;;;;;5016567;28;20226;-86
2021/08/18 00:08:06;;;;;;;25.60;8.80;;;13.80;91.10;;;;;;5034240;28;20165;-87
2021/08/18 00:10:32;;;;;;;19.53;10.53;;;13.80;91.00;;;;;;5034113;28;20181;-87
2021/08/18 00:12:57;;;;;;;21.10;10.30;;;13.80;90.90;;;;;;5033992;28;20284;-87
2021/08/18 00:15:24;;;;;;;21.77;10.60;;;13.80;90.90;;;;;;5016436;28;20643;-87
2021/08/18 00:17:51;;;;;;;22.17;11.33;;;13.80;91.00;;;;;;5016385;28;20176;-87
2021/08/18 00:20:17;;;;;;;21.83;10.03;;;13.80;91.00;;;;;;5016334;28;20636;-87
2021/08/18 00:22:43;;;;;;;22.50;12.00;;;13.80;91.00;;;;;;5034260;28;20192;-87
2021/08/18 00:25:10;;;;;;;23.60;10.67;;;13.90;91.00;;;;;;5016270;28;20586;-87
2021/08/18 00:27:35;;;;;;;22.67;11.43;;;13.90;90.90;;;;;;5016224;28;20176;-87
2021/08/18 00:30:02;;;;;;;22.70;10.30;;;13.80;90.90;;;;;;5016416;28;20180;-87
2021/08/18 00:32:28;;;;;;;26.33;10.87;;;13.80;91.00;;;;;;5015938;28;20291;-87
2021/08/18 00:34:53;;;;;;;24.87;10.70;;;13.80;90.90;;;;;;5016169;28;20263;-88
2021/08/18 00:37:19;;;;;;;20.87;10.30;;;13.80;90.90;;;;;;5033800;28;20173;-87
2021/08/18 00:39:44;;;;;;;22.27;10.47;;;13.90;91.00;;;;;;5016080;28;20176;-87
2021/08/18 00:42:10;;;;;;;24.23;10.57;;;13.90;90.90;;;;;;5033908;28;20199;-88
2021/08/18 00:44:36;;;;;;;24.57;10.53;;;13.90;90.80;;;;;;5016000;28;20177;-87
2021/08/18 00:47:05;;;;;;;18.73;9.50;;;13.90;90.80;;;;;;5033561;28;20222;-86
2021/08/18 00:49:32;;;;;;;22.00;10.63;;;13.90;90.70;;;;;;5033350;28;20539;-86
2021/08/18 00:52:01;;;;;;;22.13;10.33;;;13.90;90.70;;;;;;5032862;28;20227;-86
2021/08/18 00:54:27;;;;;;;15.53;8.00;;;13.90;90.60;;;;;;5033777;28;20169;-86
2021/08/18 00:56:54;;;;;;;23.27;10.03;;;13.90;90.70;;;;;;5033502;28;20251;-86
2021/08/18 00:59:21;;;;;;;22.00;10.30;;;13.90;90.60;;;;;;5015678;28;20267;-86
2021/08/18 01:01:47;;;;;;;18.40;10.33;;;13.90;90.70;;;;;;5033308;28;20188;-87
2021/08/18 01:04:14;;;;;;;21.07;10.20;;;13.80;90.70;;;;;;5015687;28;20668;-88
2021/08/18 01:06:42;;;;;;;23.43;11.23;;;13.80;91.00;;;;;;5033279;28;20223;-87
2021/08/18 01:09:10;;;;;;;25.60;10.70;;;13.80;90.90;;;;;;5033568;28;20173;-87
2021/08/18 01:11:37;;;;;;;23.77;10.73;;;13.80;90.90;;;;;;5033259;28;20215;-87
2021/08/18 01:14:03;;;;;;;16.93;9.63;;;13.80;90.90;;;;;;5015476;28;20676;-87
2021/08/18 01:16:33;;;;;;;20.80;9.67;;;13.80;91.00;;;;;;5033426;28;20172;-87
2021/08/18 01:18:59;;;;;;;15.53;9.67;;;13.80;91.00;;;;;;5015542;28;20180;-87
2021/08/18 01:21:26;;;;;;;21.70;9.03;;;13.80;91.00;;;;;;5033182;28;20176;-87
2021/08/18 01:23:51;;;;;;;22.13;10.03;;;13.80;91.00;;;;;;5032886;28;20212;-87
2021/08/18 01:26:17;;;;;;;18.40;9.93;;;13.80;91.00;;;;;;5033148;28;20654;-87
2021/08/18 01:28:43;;;;;;;26.60;10.10;;;13.80;90.90;;;;;;5015357;28;20179;-86
2021/08/18 01:31:08;;;;;;;20.67;9.77;;;13.80;90.90;;;;;;5033382;28;20690;-86
2021/08/18 01:33:35;;;;;;;18.87;10.33;;;13.80;91.00;;;;;;5015257;28;20216;-86
2021/08/18 01:36:01;;;;;;;25.33;11.03;;;13.80;91.10;;;;;;5015595;28;20176;-86
2021/08/18 01:38:26;;;;;;;24.80;11.27;;;13.80;91.20;;;;;;5033196;28;20226;-86
2021/08/18 01:40:53;;;;;;;18.00;10.50;;;13.80;91.10;;;;;;5015606;28;20177;-86
2021/08/18 01:43:20;;;;;;;28.03;10.77;;;13.70;91.00;;;;;;5015310;28;20196;-87
2021/08/18 01:45:46;;;;;;;16.87;9.03;;;13.70;91.10;;;;;;5015258;28;20670;-86
2021/08/18 01:48:15;;;;;;;19.90;9.83;;;13.60;91.20;;;;;;5032840;28;20211;-86
2021/08/18 01:50:42;;;;;;;24.93;10.17;;;13.70;91.30;;;;;;5033148;28;20173;-86
2021/08/18 01:53:08;;;;;;;24.67;10.77;;;13.70;91.30;;;;;;5014999;28;20284;-86
2021/08/18 01:55:33;;;;;;;22.33;11.47;;;13.70;91.30;;;;;;5015185;28;20184;-86
2021/08/18 01:57:59;;;;;;;21.77;11.57;;;13.60;91.30;;;;;;5015223;28;20218;-86
2021/08/18 02:00:27;;;;;;;19.03;10.70;;;13.50;91.40;;;;;;5032791;28;20165;-87
2021/08/18 02:02:53;;;;;;;21.43;11.43;;;13.40;91.60;;;;;;5017803;28;20196;-87
2021/08/18 02:05:19;;;;;;;20.70;11.03;;;13.30;91.70;;;;;;5036905;28;20563;-87
2021/08/18 02:07:44;;;;;;;24.80;12.27;;;13.30;91.90;;;;;;5036497;28;20191;-86
2021/08/18 02:10:16;;;;;;;22.40;11.80;;;13.20;92.00;;;;;;5036488;28;20222;-86
2021/08/18 02:12:42;;;;;;;23.03;11.83;;;13.20;92.20;;;;;;5018621;28;20207;-86
2021/08/18 02:15:10;;;;;;;20.67;11.33;;;13.20;92.30;;;;;;5036383;28;20195;-87
2021/08/18 02:17:36;;;;;;;21.30;11.83;;;13.20;92.40;;;;;;5018605;28;20573;-86
2021/08/18 02:20:04;;;;;;;22.63;11.93;;;13.20;92.50;;;;;;5036307;28;20223;-86
2021/08/18 02:22:30;;;;;;;21.03;11.40;;;13.20;92.70;;;;;;5018476;28;20212;-86
2021/08/18 02:24:56;;;;;;;31.87;12.60;;;13.20;92.70;;;;;;5018629;28;20223;-86
2021/08/18 02:27:22;;;;;;;18.27;10.73;;;13.10;92.60;;;;;;5036456;28;20251;-86
2021/08/18 02:29:47;;;;;;;25.83;11.60;;;13.00;92.70;;;;;;5018731;28;20525;-86
2021/08/18 02:32:13;;;;;;;20.80;10.63;;;13.00;92.80;;;;;;5035890;28;20205;-86
2021/08/18 02:34:39;;;;;;;20.93;12.20;;;13.00;92.80;;;;;;5036020;28;20180;-86
2021/08/18 02:37:05;;;;;;;19.57;11.77;;;13.00;93.00;;;;;;5018258;28;20181;-86
2021/08/18 02:39:30;;;;;;;19.07;11.07;;;13.00;93.00;;;;;;5036198;28;20171;-86
2021/08/18 02:41:56;;;;;;;29.17;12.60;;;12.90;93.10;;;;;;5018379;28;20540;-86
2021/08/18 02:44:22;;;;;;;21.20;12.27;;;12.90;93.10;;;;;;5036079;28;20644;-86
2021/08/18 02:46:48;;;;;;;21.00;12.17;;;12.90;93.10;;;;;;5035859;28;20207;-86
2021/08/18 02:49:15;;;;;;;24.83;11.47;;;12.90;93.10;;;;;;5017966;28;20264;-86
2021/08/18 02:51:41;;;;;;;21.10;11.77;;;12.90;93.10;;;;;;5017935;28;20652;-86
2021/08/18 02:54:07;;;;;;;18.57;11.63;;;12.90;93.10;;;;;;5017828;28;20247;-86
2021/08/18 02:56:32;;;;;;;20.50;11.60;;;13.00;93.10;;;;;;5017953;28;20648;-86
2021/08/18 02:58:58;;;;;;;23.87;12.33;;;12.90;93.10;;;;;;5018387;28;20583;-86
2021/08/18 03:01:24;;;;;;;24.20;11.43;;;12.90;93.10;;;;;;5035582;28;20644;-86
2021/08/18 03:03:49;;;;;;;22.83;11.67;;;12.90;93.20;;;;;;5018775;28;20543;-86
2021/08/18 03:06:15;;;;;;;27.53;12.37;;;12.80;93.20;;;;;;5018279;28;20180;-86
2021/08/18 03:08:40;;;;;;;25.07;12.13;;;12.90;93.30;;;;;;5017755;28;20299;-86
2021/08/18 03:11:06;;;;;;;23.87;12.33;;;12.90;93.30;;;;;;5035639;28;20215;-86
2021/08/18 03:13:32;;;;;;;25.70;12.63;;;12.90;93.40;;;;;;5034441;28;20201;-86
2021/08/18 03:15:58;;;;;;;22.67;11.60;;;12.90;93.40;;;;;;5017495;28;20169;-86
2021/08/18 03:18:23;;;;;;;18.80;12.57;;;12.90;93.40;;;;;;5035470;28;20245;-86
2021/08/18 03:20:49;;;;;;;21.03;12.40;;;12.90;93.40;;;;;;5017444;28;20199;-86
2021/08/18 03:23:15;;;;;;;24.77;12.37;;;12.90;93.40;;;;;;5034957;28;20600;-86
2021/08/18 03:25:40;;;;;;;21.67;11.27;;;12.90;93.40;;;;;;5017393;28;20173;-86
2021/08/18 03:28:06;;;;;;;26.43;13.10;;;12.90;93.40;;;;;;5017340;28;20180;-86
2021/08/18 03:30:32;;;;;;;30.50;13.90;;;12.80;93.50;;;;;;5034996;28;20172;-86
2021/08/18 03:32:58;;;;;;;32.23;14.53;;;12.90;93.50;;;;;;5017061;28;20238;-86
2021/08/18 03:35:23;;;;;;;23.23;13.87;;;12.90;93.50;;;;;;5017210;28;20628;-86
2021/08/18 03:37:49;;;;;;;20.53;12.60;;;12.90;93.50;;;;;;5034866;28;20226;-86
2021/08/18 03:40:15;;;;;;;20.23;12.67;;;12.90;93.50;;;;;;5034825;28;20195;-86
2021/08/18 03:42:40;;;;;;;27.90;14.57;;;12.90;93.50;;;;;;5016996;28;20204;-86
2021/08/18 03:45:06;;;;;;;28.73;14.87;;;12.90;93.60;;;;;;5034734;28;20177;-86
2021/08/18 03:47:32;;;;;;;21.07;12.87;;;12.90;93.60;;;;;;5034949;28;20181;-86
2021/08/18 03:49:57;;;;;;;26.93;14.03;;;13.00;93.60;;;;;;5016958;28;20211;-86
2021/08/18 03:52:23;;;;;;;25.03;13.63;;;13.00;93.60;;;;;;5016709;28;20219;-86
2021/08/18 03:54:48;;;;;;;23.50;13.70;;;13.00;93.50;;;;;;5016999;28;20203;-86
2021/08/18 03:57:14;;;;;;;22.77;13.30;;;13.10;93.40;;;;;;5016811;28;20215;-86
2021/08/18 03:59:40;;;;;;;21.37;12.70;;;13.00;93.30;;;;;;5016758;28;20711;-86
2021/08/18 04:02:05;;;;;;;24.10;13.43;;;13.00;93.30;;;;;;5017010;28;20197;-86
2021/08/18 04:04:31;;;;;;;26.13;13.13;;;13.10;93.30;;;;;;5016655;28;20181;-86
2021/08/18 04:06:56;;;;;;;24.20;13.17;;;13.10;93.30;;;;;;5034254;28;20172;-86
2021/08/18 04:09:22;;;;;;;25.80;13.13;;;13.10;93.30;;;;;;5016519;28;20200;-86
2021/08/18 04:11:47;;;;;;;26.40;14.20;;;13.20;93.20;;;;;;5016475;28;20204;-86
2021/08/18 04:14:13;;;;;;;24.80;13.90;;;13.20;93.20;;;;;;5016401;28;20208;-86
2021/08/18 04:16:39;;;;;;;21.93;12.40;;;13.20;93.20;;;;;;5034367;28;20173;-86
2021/08/18 04:19:04;;;;;;;23.77;13.67;;;13.20;93.20;;;;;;5016643;28;20184;-86
2021/08/18 04:21:30;;;;;;;22.50;13.77;;;13.20;93.30;;;;;;5016351;28;20636;-86
2021/08/18 04:23:56;;;;;;;21.70;11.57;;;13.20;93.20;;;;;;5033868;28;20673;-86
2021/08/18 04:26:21;;;;;;;25.77;12.80;;;13.20;93.30;;;;;;5016222;28;20184;-86
2021/08/18 04:28:47;;;;;;;19.50;12.63;;;13.20;93.30;;;;;;5016295;28;20211;-86
2021/08/18 04:31:13;;;;;;;23.17;13.87;;;13.20;93.30;;;;;;5033873;28;20523;-86
2021/08/18 04:33:38;;;;;;;29.33;13.40;;;13.20;93.40;;;;;;5016316;28;20220;-86
2021/08/18 04:36:04;;;;;;;22.37;13.00;;;13.30;93.30;;;;;;5016102;28;20659;-86
2021/08/18 04:38:30;;;;;;;23.23;13.73;;;13.30;93.40;;;;;;5016045;28;20238;-86
2021/08/18 04:40:55;;;;;;;22.87;13.30;;;13.30;93.30;;;;;;5015994;28;20176;-86
2021/08/18 04:43:21;;;;;;;22.53;12.00;;;13.30;93.30;;;;;;5015951;28;20196;-86
2021/08/18 04:45:47;;;;;;;26.13;13.20;;;13.30;93.20;;;;;;5015932;28;20265;-86
2021/08/18 04:48:12;;;;;;;20.87;13.53;;;13.30;93.20;;;;;;5015931;28;20716;-86
2021/08/18 04:50:38;;;;;;;22.83;13.93;;;13.40;93.20;;;;;;5015878;28;20271;-86
2021/08/18 04:53:12;;;;;;;19.87;12.67;;;13.40;93.10;;;;;;5033623;28;20228;-86
2021/08/18 04:55:39;;;;;;;24.83;13.17;;;13.50;93.00;;;;;;5015775;28;20173;-86
2021/08/18 04:58:05;;;;;;;24.03;12.77;;;13.50;93.00;;;;;;5015789;28;20176;-86
2021/08/18 05:00:31;;;;;;;22.03;12.90;;;13.50;92.90;;;;;;5033460;28;20276;-86
2021/08/18 05:02:57;;;;;;;20.17;12.73;;;13.50;92.80;;;;;;5015597;28;20723;-86
2021/08/18 05:05:22;;;;;;;22.53;11.70;;;13.60;92.60;;;;;;5015679;28;20632;-86
2021/08/18 05:07:48;;;;;;;32.10;13.30;;;13.60;92.50;;;;;;5015691;28;20180;-86
2021/08/18 05:10:14;;;;;;;18.97;12.10;;;13.70;92.60;;;;;;5033275;28;20651;-86
2021/08/18 05:12:39;;;;;;;21.60;12.20;;;13.70;92.50;;;;;;5033123;28;20208;-86
2021/08/18 05:15:06;;;;;;;16.53;11.47;;;13.70;92.60;;;;;;5015520;28;20644;-86
2021/08/18 05:17:32;;;;;;;22.17;13.27;;;13.70;92.60;;;;;;5015520;28;20223;-86
2021/08/18 05:19:57;;;;;;;19.77;12.33;;;13.70;92.60;;;;;;5015521;28;20640;-86
2021/08/18 05:22:23;;;;;;;22.23;12.07;;;13.80;92.60;;;;;;5015280;28;20211;-86
2021/08/18 05:24:49;;;;;;;19.50;11.97;;;13.70;92.60;;;;;;5015452;28;20242;-86
2021/08/18 05:27:14;;;;;;;24.07;12.17;;;13.70;92.40;;;;;;5015430;28;20553;-86
2021/08/18 05:29:40;;;;;;;17.50;11.17;;;13.80;92.40;;;;;;5033103;28;20253;-86
2021/08/18 05:32:06;;;;;;;18.17;11.93;;;13.80;92.40;;;;;;5015238;28;20255;-86
2021/08/18 05:34:32;;;;;;;22.53;13.17;;;13.80;92.30;;;;;;5015322;28;20727;-86
2021/08/18 05:36:57;;;;;;;23.13;12.50;;;13.80;92.30;;;;;;5016798;28;20644;-86
2021/08/18 05:39:23;;;;;;;19.87;12.27;;;13.80;92.40;;;;;;5019435;28;20714;-86
2021/08/18 05:41:48;;;;;;;19.27;10.73;;;13.90;92.20;;;;;;5019212;28;20240;-86
2021/08/18 05:44:14;;;;;;;22.67;12.37;;;13.90;92.10;;;;;;5036998;28;20177;-87
2021/08/18 05:46:40;;;;;;;15.60;11.70;;;14.00;92.10;;;;;;5036942;28;20211;-86
2021/08/18 05:49:05;;;;;;;16.77;11.13;;;14.00;92.20;;;;;;5037132;28;20191;-86
2021/08/18 05:51:31;;;;;;;16.53;11.00;;;14.10;92.20;;;;;;5019110;28;20276;-87
2021/08/18 05:53:57;;;;;;;14.33;9.57;;;14.10;92.00;;;;;;5036758;28;20196;-87
2021/08/18 05:56:22;;;;;;;18.10;10.60;;;14.20;92.10;;;;;;5036800;28;20616;-87
2021/08/18 05:58:48;;;;;;;17.03;10.77;;;14.20;91.80;;;;;;5037287;28;20255;-87
2021/08/18 06:01:14;;;;;;;17.17;10.80;;;14.30;91.90;;;;;;5019000;28;20188;-87
2021/08/18 06:03:39;;;;;;;14.80;9.27;;;14.30;91.80;;;;;;5036804;28;20246;-87
2021/08/18 06:06:05;;;;;;;10.20;7.50;;;14.40;91.80;;;;;;5036819;28;20169;-86
2021/08/18 06:08:31;;;;;;;12.37;7.90;;;14.30;91.70;;;;;;5018769;28;20521;-87
2021/08/18 06:10:56;;;;;;;13.20;8.97;;;14.20;92.00;;;;;;5018831;28;20628;-87
2021/08/18 06:13:23;;;;;;;11.53;8.60;;;14.20;92.30;;;;;;5036286;28;20205;-87
2021/08/18 06:15:49;;;;;;;11.33;7.97;;;14.20;92.80;;;;;;5036408;28;20663;-87
2021/08/18 06:18:15;;;;;;;17.50;8.53;;;14.20;92.80;;;;;;5018610;28;20719;-87
2021/08/18 06:20:41;;;;;;;12.60;7.70;;;14.30;93.00;;;;;;5036328;28;20253;-86
2021/08/18 06:23:07;;;;;;;12.37;8.33;;;14.30;92.80;;;;;;5018282;28;20222;-87
2021/08/18 06:25:32;;;;;;;13.50;7.70;;;14.30;92.80;;;;;;5018504;28;20173;-87
2021/08/18 06:27:58;;;;;;;11.07;5.60;;;14.40;92.80;;;;;;5036084;28;20173;-87
2021/08/18 06:30:24;;;;;;;11.00;6.63;;;14.50;92.50;;;;;;5018466;28;20212;-87
2021/08/18 06:32:49;;;;;;;11.80;7.50;;;14.50;92.20;;;;;;5018220;28;20217;-87
2021/08/18 06:35:15;;;;;;;11.57;6.40;;;14.60;92.40;;;;;;5018319;28;20263;-87
2021/08/18 06:37:41;;;;;;;7.63;5.50;;;14.60;92.40;;;;;;5036012;28;20172;-87
2021/08/18 06:40:09;;;;;;;8.50;6.17;;;14.70;92.20;;;;;;5035934;28;20199;-87
2021/08/18 06:42:39;;;;;;;9.50;6.10;;;14.70;92.00;;;;;;5002025;28;20204;-87
2021/08/18 06:45:05;;;;;;;8.27;4.07;;;14.70;91.90;;;;;;5035919;28;20169;-87
2021/08/18 06:47:31;;;;;;;9.37;6.10;;;14.60;91.60;;;;;;5035395;28;20177;-87
2021/08/18 06:49:57;;;;;;;7.83;5.07;;;14.70;91.80;;;;;;5017333;28;20222;-87
2021/08/18 06:52:22;;;;;;;12.60;5.70;;;14.70;91.60;;;;;;5017932;28;20205;-87
2021/08/18 06:54:48;;;;;;;8.77;5.77;;;14.60;91.80;;;;;;5018040;28;20595;-87
2021/08/18 06:57:13;;;;;;;9.77;5.77;;;14.70;92.10;;;;;;5035680;28;20256;-87
2021/08/18 06:59:39;;;;;;;8.47;5.23;;;14.70;92.10;;;;;;5035570;28;20567;-87
2021/08/18 07:02:05;;;;;;;11.00;6.40;;;14.70;92.30;;;;;;5017816;28;20255;-87
2021/08/18 07:04:30;;;;;;;9.20;6.13;;;14.60;92.50;;;;;;5035522;28;20200;-87
2021/08/18 07:06:56;;;;;;;10.37;6.80;;;14.50;92.70;;;;;;5017719;28;20181;-87
2021/08/18 07:09:22;;;;;;;8.50;6.07;;;14.50;92.60;;;;;;5017674;28;20177;-87
2021/08/18 07:11:47;;;;;;;9.87;5.90;;;14.50;92.80;;;;;;5017637;28;20193;-88
2021/08/18 07:14:13;;;;;;;8.93;5.20;;;14.50;92.80;;;;;;5017617;28;20204;-88
2021/08/18 07:16:39;;;;;;;9.37;5.50;;;14.50;92.90;;;;;;5035240;28;20176;-87
2021/08/18 07:19:04;;;;;;;7.53;6.03;;;14.60;92.70;;;;;;5017579;28;20181;-87
2021/08/18 07:21:30;;;;;;;9.83;5.93;;;14.60;92.70;;;;;;5017719;28;20180;-87
2021/08/18 07:23:56;;;;;;;9.83;5.63;;;14.70;92.70;;;;;;5035014;28;20322;-87
2021/08/18 07:26:27;;;;;;;8.97;5.73;;;14.70;92.20;;;;;;5035122;28;20234;-88
2021/08/18 07:28:57;;;;;;;8.50;5.43;;;14.70;92.40;;;;;;5035114;28;20162;-88
2021/08/18 07:31:25;;;;;;;10.53;6.37;;;14.70;92.30;;;;;;5017331;28;20210;-88
2021/08/18 07:33:51;;;;;;;11.33;6.03;;;14.80;92.60;;;;;;5034863;28;20201;-87
2021/08/18 07:36:16;;;;;;;10.07;7.00;;;14.90;92.60;;;;;;5035000;28;20169;-88
2021/08/18 07:38:42;;;;;;;10.53;6.87;;;14.90;92.70;;;;;;5017163;28;20188;-88
2021/08/18 07:41:08;;;;;;;15.90;7.17;;;15.00;92.50;;;;;;5017221;28;20275;-87
2021/08/18 07:43:33;;;;;;;11.07;7.33;;;15.10;92.20;;;;;;5017016;28;20203;-88
2021/08/18 07:45:59;;;;;;;11.23;7.13;;;15.20;92.10;;;;;;5017011;28;20185;-88
2021/08/18 07:48:25;;;;;;;11.30;6.87;;;15.30;92.40;;;;;;5017211;28;20180;-87
2021/08/18 07:50:51;;;;;;;13.43;7.27;;;15.40;92.40;;;;;;5034620;28;20231;-88
2021/08/18 07:53:17;;;;;;;13.77;6.90;;;15.40;92.00;;;;;;5016769;28;20201;-87
2021/08/18 07:55:42;;;;;;;10.43;7.13;;;15.50;91.60;;;;;;5034822;28;20207;-87
2021/08/18 07:58:08;;;;;;;11.53;6.40;;;15.40;91.20;;;;;;5034540;28;20168;-87
2021/08/18 08:00:38;;;;;;;10.97;6.33;;;15.40;91.10;;;;;;5034153;28;20176;-87
2021/08/18 08:03:03;;;;;;;9.17;5.33;;;15.40;91.00;;;;;;5016642;28;20240;-87
2021/08/18 08:05:29;;;;;;;7.93;5.43;;;15.40;90.80;;;;;;5016601;28;20215;-87
2021/08/18 08:07:55;;;;;;;7.27;4.40;;;15.40;90.70;;;;;;5016577;28;20219;-87
2021/08/18 08:10:21;;;;;;;14.37;5.53;;;15.40;90.40;;;;;;5034274;28;20176;-87
2021/08/18 08:12:46;;;;;;;8.95;4.45;;;15.40;90.30;;;;;;5034161;28;20564;-87
2021/08/18 08:15:12;;;;;;;10.63;5.63;;;15.30;89.70;;;;;;5016775;28;20334;-87
2021/08/18 08:17:38;;;;;;;9.53;5.20;;;15.30;90.50;;;;;;5016486;28;20173;-87
2021/08/18 08:20:05;;;;;;;8.70;5.13;;;15.20;90.70;;;;;;5034118;28;20173;-87
2021/08/18 08:22:31;;;;;;;10.70;4.97;;;15.10;91.00;;;;;;5034214;28;20196;-87
2021/08/18 08:24:56;;;;;;;13.70;5.33;;;15.20;91.40;;;;;;5016251;28;20200;-87
2021/08/18 08:27:22;;;;;;;11.30;5.90;;;15.20;91.60;;;;;;5016667;28;20581;-87
2021/08/18 08:29:48;;;;;;;8.80;4.97;;;15.30;91.50;;;;;;5033913;28;20195;-87
2021/08/18 08:32:13;;;;;;;10.57;5.27;;;15.40;91.50;;;;;;5033766;28;20676;-87
2021/08/18 08:34:39;;;;;;;9.97;5.60;;;15.50;91.70;;;;;;5033855;28;20181;-88
2021/08/18 08:37:05;;;;;;;10.52;5.22;;;15.50;91.00;;;;;;5034043;28;20636;-88
2021/08/18 08:39:31;;;;;;;10.97;4.80;;;15.60;90.90;;;;;;5033827;28;20184;-88
2021/08/18 08:41:57;;;;;;;15.37;6.00;;;15.70;90.70;;;;;;5033674;28;20196;-88
2021/08/18 08:44:25;;;;;;;11.17;6.20;;;15.80;91.20;;;;;;5033715;28;20268;-87
2021/08/18 08:46:53;;;;;;;12.20;5.53;;;15.90;90.50;;;;;;5033647;28;20184;-87
2021/08/18 08:49:21;;;;;;;14.85;6.40;;;15.90;90.70;;;;;;5015944;28;20184;-87
2021/08/18 08:51:49;;;;;;;11.67;4.30;;;16.10;90.70;;;;;;5015871;28;20176;-87
2021/08/18 08:54:16;;;;;;;14.23;5.70;;;16.10;89.90;;;;;;5033473;28;20207;-87
2021/08/18 08:56:41;;;;;;;8.75;5.53;;;16.00;89.90;;;;;;5015764;28;20524;-87
2021/08/18 08:59:07;;;;;;;10.05;4.85;;;16.10;90.10;;;;;;5033744;28;20176;-88
2021/08/18 09:02:01;;;;;;;15.90;6.85;;;16.10;89.50;;;;;;5015673;28;20184;-87
2021/08/18 09:04:31;;;;;;;9.77;5.65;;;16.10;89.60;;;;;;5033334;28;20185;-87
2021/08/18 09:07:06;;;;;;;11.73;5.22;;;16.20;89.80;;;;;;5033401;28;20165;-87
2021/08/18 09:09:33;;;;;;;11.15;5.13;;;16.10;89.20;;;;;;5015630;28;20180;-87
2021/08/18 09:12:05;;;;;;;11.23;4.55;;;16.10;89.60;;;;;;5015127;28;20291;-87
2021/08/18 09:14:31;;;;;;;13.75;5.45;;;16.00;89.20;;;;;;5015504;28;20180;-87
2021/08/18 09:16:56;;;;;;;9.73;4.80;;;16.00;89.40;;;;;;5015545;28;20179;-87
2021/08/18 09:19:31;;;;;;;7.43;4.43;;;16.10;89.60;;;;;;5015550;28;20185;-87
2021/08/18 09:22:07;;;;;;;14.63;5.80;;;16.10;89.00;;;;;;5015455;28;20196;-87
2021/08/18 09:24:33;;;;;;;12.00;5.68;;;16.20;89.90;;;;;;5015810;28;20188;-87
2021/08/18 09:27:08;;;;;;;9.32;4.68;;;16.30;89.20;;;;;;5033183;28;20644;-87
2021/08/18 09:29:44;;;;;;;12.50;5.63;;;16.30;88.70;;;;;;5033363;28;20160;-87
2021/08/18 09:32:32;;;;;;;11.82;5.68;;;16.40;89.30;;;;;;5033129;28;20200;-88
2021/08/18 09:35:08;;;;;;;10.00;5.28;;;16.40;89.10;;;;;;5015447;28;20291;-87
2021/08/18 09:37:35;;;;;;;13.85;6.00;;;16.30;88.60;;;;;;5015319;28;20183;-87
2021/08/18 09:40:15;;;;;;;10.70;5.57;;;16.30;88.50;;;;;;5015289;28;20168;-87
2021/08/18 09:42:41;;;;;;;12.02;5.57;;;16.30;88.10;;;;;;5033110;28;20200;-87
2021/08/18 09:45:20;;;;;;;12.18;5.38;;;16.50;88.60;;;;;;5015262;28;20181;-87
2021/08/18 09:48:23;;;;;;;12.07;5.45;;;16.50;87.70;;;;;;5032876;28;20226;-87
2021/08/18 09:51:00;;;;;;;11.35;5.80;;;16.50;87.50;;;;;;4991850;28;20181;-86
2021/08/18 09:53:25;;;;;;;12.13;5.78;;;16.50;87.80;;;;;;5012694;28;20683;-86
2021/08/18 09:56:00;;;;;;;11.10;5.38;;;16.50;88.00;;;;;;5015204;28;20196;-86
2021/08/18 09:58:29;;;;;;;15.95;5.70;;;16.50;88.10;;;;;;5015163;28;20259;-86
2021/08/18 10:00:57;;;;;;;6.15;3.60;;;16.60;87.70;;;;;;5032808;28;20173;-86
2021/08/18 10:03:23;;;;;;;13.10;5.90;;;16.60;86.30;;;;;;5015098;28;20200;-86
2021/08/18 10:05:50;;;;;;;19.48;5.65;;;16.60;87.50;;;;;;5015048;28;20540;-86
2021/08/18 10:08:17;;;;;;;12.43;6.20;;;16.60;87.40;;;;;;5032673;28;20172;-87
2021/08/18 10:10:43;;;;;;;10.98;5.43;;;16.80;87.20;;;;;;5015014;28;20181;-86
2021/08/18 10:13:10;;;;;;;9.68;5.57;;;16.90;86.50;;;;;;5015139;28;20575;-86
2021/08/18 10:15:36;;;;;;;7.57;3.80;;;17.00;86.20;;;;;;5014973;28;20177;-86
2021/08/18 10:18:04;;;;;;;10.32;4.90;;;17.10;84.50;;;;;;5014968;28;20675;-86
2021/08/18 10:20:30;;;;;;;13.68;5.93;;;17.10;84.30;;;;;;5032937;28;20244;-87
2021/08/18 10:23:08;;;;;;;10.25;5.15;;;17.10;85.00;;;;;;5015952;28;20287;-86
2021/08/18 10:25:44;;;;;;;13.18;5.40;;;17.10;83.90;;;;;;5036538;28;20169;-86
2021/08/18 10:28:10;;;;;;;15.10;5.93;;;17.20;84.60;;;;;;5036555;28;20172;-86
2021/08/18 10:30:51;;;;;;;8.63;5.20;;;17.20;84.10;;;;;;5018476;28;20179;-87
2021/08/18 10:33:58;;;;;;;13.43;5.80;;;17.10;84.40;;;;;;5035931;28;20271;-86
2021/08/18 10:36:42;;;;;;;14.23;4.90;;;17.10;85.30;;;;;;5036482;28;20184;-86
2021/08/18 10:39:23;;;;;;;15.43;5.82;;;17.20;83.40;;;;;;5035999;28;20644;-87
2021/08/18 10:42:13;;;;;;;14.15;6.10;;;17.20;83.40;;;;;;5036171;28;20216;-86
2021/08/18 10:44:42;;;;;;;10.43;5.45;;;17.40;83.70;;;;;;5036150;28;20199;-86
2021/08/18 10:47:13;;;;;;;12.68;5.78;;;17.60;83.10;;;;;;5018256;28;20177;-86
2021/08/18 10:49:39;;;;;;;10.93;4.95;;;17.80;83.60;;;;;;5036138;28;20172;-86
2021/08/18 10:52:05;;;;;;;13.20;5.63;;;17.80;82.40;;;;;;5035977;28;20192;-86
2021/08/18 10:54:31;;;;;;;14.40;5.68;;;17.70;82.40;;;;;;5035869;28;20295;-86
2021/08/18 10:56:58;;;;;;;10.27;4.90;;;17.50;82.80;;;;;;5035676;28;20165;-86
2021/08/18 10:59:36;;;;;;;15.80;6.82;;;17.50;83.30;;;;;;5035623;28;20246;-86
2021/08/18 11:02:02;;;;;;;11.23;5.60;;;17.40;83.40;;;;;;5035685;28;20188;-86
2021/08/18 11:04:45;;;;;;;14.18;5.47;;;17.30;83.70;;;;;;5017840;28;20180;-86
2021/08/18 11:07:11;;;;;;;21.92;7.18;;;17.20;83.60;;;;;;5035433;28;20196;-86
2021/08/18 11:09:46;;;;;;;19.98;6.47;;;17.20;84.90;;;;;;5035484;28;20675;-86
2021/08/18 11:12:41;;;;;;;15.85;6.80;;;17.30;84.90;;;;;;5017538;28;20310;-86
2021/08/18 11:15:27;;;;;;;21.60;5.97;;;17.60;85.50;;;;;;5035298;28;20173;-86
2021/08/18 11:17:54;;;;;;;15.05;6.45;;;18.00;84.70;;;;;;5027846;28;20181;-86
2021/08/18 11:20:27;;;;;;;10.52;5.50;;;18.20;82.90;;;;;;5017547;28;20656;-86
2021/08/18 11:23:07;;;;;;;14.48;6.43;;;18.20;82.60;;;;;;5035290;28;20675;-86
2021/08/18 11:25:43;;;;;;;11.60;5.70;;;18.00;82.20;;;;;;5035224;28;20537;-86
2021/08/18 11:28:23;;;;;;;13.88;6.15;;;17.90;83.00;;;;;;5035400;28;20627;-86
2021/08/18 11:31:10;;;;;;;11.13;5.65;;;17.80;82.80;;;;;;5017304;28;20172;-86
2021/08/18 11:33:36;;;;;;;18.98;6.88;;;17.80;84.30;;;;;;5034878;28;20207;-86
2021/08/18 11:36:12;;;;;;;11.90;5.43;;;17.80;84.10;;;;;;5016573;28;20180;-86
2021/08/18 11:38:38;;;;;;;14.85;6.88;;;18.00;84.10;;;;;;5017191;28;20157;-86
2021/08/18 11:41:04;;;;;;;13.00;5.78;;;18.00;83.10;;;;;;5017299;28;20240;-86
2021/08/18 11:43:41;;;;;;;16.80;6.03;;;18.00;83.40;;;;;;5035006;28;20200;-86
2021/08/18 11:46:08;;;;;;;19.50;5.75;;;18.00;82.80;;;;;;5034797;28;20172;-86
2021/08/18 11:48:34;;;;;;;13.15;5.57;;;17.80;83.30;;;;;;5016954;28;20230;-86
2021/08/18 11:51:01;;;;;;;14.27;6.43;;;17.70;83.10;;;;;;5034613;28;20585;-86
2021/08/18 11:53:27;;;;;;;11.15;5.50;;;17.70;82.90;;;;;;5034411;28;20205;-86
2021/08/18 11:56:04;;;;;;;13.95;5.82;;;17.70;83.60;;;;;;5016682;28;20168;-86
2021/08/18 11:58:32;;;;;;;12.85;6.03;;;17.60;83.00;;;;;;5016783;28;20169;-86
2021/08/18 12:01:00;;;;;;;11.93;5.43;;;17.70;82.20;;;;;;5016634;28;20177;-86
2021/08/18 12:03:27;;;;;;;10.35;4.65;;;17.70;81.70;;;;;;5034329;28;20188;-86
2021/08/18 12:06:00;;;;;;;13.15;5.68;;;17.70;81.50;;;;;;5034306;28;20251;-86
2021/08/18 12:08:37;;;;;;;9.63;5.30;;;17.90;82.10;;;;;;5034305;28;20645;-86
2021/08/18 12:11:03;;;;;;;12.65;5.40;;;18.10;82.10;;;;;;5034280;28;20599;-86
2021/08/18 12:13:42;;;;;;;10.57;4.93;;;18.30;81.40;;;;;;5016313;28;20262;-86
2021/08/18 12:16:31;;;;;;;14.45;5.18;;;18.30;80.90;;;;;;5016429;28;20545;-86
2021/08/18 12:19:16;;;;;;;9.73;4.68;;;18.50;81.40;;;;;;5016387;28;20169;-86
2021/08/18 12:21:41;;;;;;;8.38;3.70;;;18.70;80.90;;;;;;5016273;28;20263;-86
2021/08/18 12:24:13;;;;;;;10.13;4.10;;;18.80;77.00;;;;;;5033868;28;20315;-87
2021/08/18 12:26:42;;;;;;;7.07;3.38;;;18.70;78.80;;;;;;5034035;28;20259;-86
2021/08/18 12:29:09;;;;;;;6.95;4.10;;;18.70;78.50;;;;;;5017316;28;20235;-86
2021/08/18 12:31:54;;;;;;;7.78;4.18;;;18.60;78.80;;;;;;5016148;28;20644;-86
2021/08/18 12:34:35;;;;;;;7.00;3.72;;;18.80;78.50;;;;;;5033846;28;20607;-86
2021/08/18 12:37:13;;;;;;;10.35;4.15;;;18.90;78.90;;;;;;5016241;28;20165;-86